Terminal Aerodrome Forecast
Issued by NWS

Home | Current Version | Previous Version | Text Only | Print | Product List | Glossary On
Versions: 1 2 3 4 5 6 7 8 9 10 11 12 13 14 15 16 17 18
101
FTUS43 KMQT 061239 AAA
TAFIWD
TAF AMD
KIWD 061239Z 0613/0712 23007KT P6SM OVC035
     FM062300 19010KT P6SM OVC050
     FM070200 19010KT P6SM OVC024
     FM070600 20010KT P6SM OVC015
      AMD LTD TO CLD VIS AND WIND=

USA.gov is the U.S. government's official web portal to all federal, state and local government web resources and services.